sensor_id;sensor_type;location;lat;lon;timestamp;temperature;humidity
16253;DHT22;8234;41.480;2.306;2023-03-01T00:00:50;6.50;99.90
16253;DHT22;8234;41.480;2.306;2023-03-01T00:11:01;6.40;99.90
16253;DHT22;8234;41.480;2.306;2023-03-01T00:21:06;6.30;99.90
16253;DHT22;8234;41.480;2.306;2023-03-01T00:31:12;6.10;99.90
16253;DHT22;8234;41.480;2.306;2023-03-01T00:41:19;6.20;99.90
16253;DHT22;8234;41.480;2.306;2023-03-01T00:51:26;6.30;99.90
16253;DHT22;8234;41.480;2.306;2023-03-01T01:01:31;6.20;99.90
16253;DHT22;8234;41.480;2.306;2023-03-01T01:11:35;6.10;99.90
16253;DHT22;8234;41.480;2.306;2023-03-01T01:21:41;6.30;99.90
16253;DHT22;8234;41.480;2.306;2023-03-01T01:31:46;6.10;99.90
16253;DHT22;8234;41.480;2.306;2023-03-01T01:41:51;5.60;99.90
16253;DHT22;8234;41.480;2.306;2023-03-01T01:52:02;5.90;99.90
16253;DHT22;8234;41.480;2.306;2023-03-01T02:02:08;5.40;99.90
16253;DHT22;8234;41.480;2.306;2023-03-01T02:12:14;5.30;99.90
16253;DHT22;8234;41.480;2.306;2023-03-01T02:22:22;5.30;99.90
16253;DHT22;8234;41.480;2.306;2023-03-01T02:32:29;5.20;99.90
16253;DHT22;8234;41.480;2.306;2023-03-01T02:42:36;4.90;99.90
16253;DHT22;8234;41.480;2.306;2023-03-01T02:52:47;5.00;99.90
16253;DHT22;8234;41.480;2.306;2023-03-01T03:02:55;4.90;99.90
16253;DHT22;8234;41.480;2.306;2023-03-01T03:13:03;4.80;99.90
16253;DHT22;8234;41.480;2.306;2023-03-01T03:23:07;4.50;99.90
16253;DHT22;8234;41.480;2.306;2023-03-01T03:33:12;4.50;99.90
16253;DHT22;8234;41.480;2.306;2023-03-01T03:43:18;4.50;99.90
16253;DHT22;8234;41.480;2.306;2023-03-01T03:53:25;4.40;99.90
16253;DHT22;8234;41.480;2.306;2023-03-01T04:03:31;4.40;99.90
16253;DHT22;8234;41.480;2.306;2023-03-01T04:13:36;4.40;99.90
16253;DHT22;8234;41.480;2.306;2023-03-01T04:23:40;4.30;99.90
16253;DHT22;8234;41.480;2.306;2023-03-01T04:33:48;4.40;99.90
16253;DHT22;8234;41.480;2.306;2023-03-01T04:43:53;4.50;99.90
16253;DHT22;8234;41.480;2.306;2023-03-01T04:53:59;4.40;99.90
16253;DHT22;8234;41.480;2.306;2023-03-01T05:04:04;4.30;99.90
16253;DHT22;8234;41.480;2.306;2023-03-01T05:14:10;4.20;99.90
16253;DHT22;8234;41.480;2.306;2023-03-01T05:24:13;4.10;99.90
16253;DHT22;8234;41.480;2.306;2023-03-01T05:34:19;4.10;99.90
16253;DHT22;8234;41.480;2.306;2023-03-01T05:44:27;4.10;99.90
16253;DHT22;8234;41.480;2.306;2023-03-01T05:54:32;4.00;99.90
16253;DHT22;8234;41.480;2.306;2023-03-01T06:04:36;3.90;99.90
16253;DHT22;8234;41.480;2.306;2023-03-01T06:14:41;3.80;99.90
16253;DHT22;8234;41.480;2.306;2023-03-01T06:24:45;3.70;99.90
16253;DHT22;8234;41.480;2.306;2023-03-01T06:34:50;3.60;99.90
16253;DHT22;8234;41.480;2.306;2023-03-01T06:44:54;3.60;99.90
16253;DHT22;8234;41.480;2.306;2023-03-01T06:55:00;3.70;99.90
16253;DHT22;8234;41.480;2.306;2023-03-01T07:05:04;3.70;99.90
16253;DHT22;8234;41.480;2.306;2023-03-01T07:15:10;4.00;99.90
16253;DHT22;8234;41.480;2.306;2023-03-01T07:25:14;4.30;99.90
16253;DHT22;8234;41.480;2.306;2023-03-01T07:35:20;4.60;99.90
16253;DHT22;8234;41.480;2.306;2023-03-01T07:45:24;5.00;99.90
16253;DHT22;8234;41.480;2.306;2023-03-01T07:55:30;5.20;99.90
16253;DHT22;8234;41.480;2.306;2023-03-01T08:05:34;5.60;99.90
16253;DHT22;8234;41.480;2.306;2023-03-01T08:15:39;5.90;99.90
16253;DHT22;8234;41.480;2.306;2023-03-01T08:25:42;6.20;99.90
16253;DHT22;8234;41.480;2.306;2023-03-01T08:35:47;6.50;99.90
16253;DHT22;8234;41.480;2.306;2023-03-01T08:45:51;6.90;99.90
16253;DHT22;8234;41.480;2.306;2023-03-01T08:55:59;7.20;99.90
16253;DHT22;8234;41.480;2.306;2023-03-01T09:06:06;7.50;99.90
16253;DHT22;8234;41.480;2.306;2023-03-01T09:16:13;7.80;99.90
16253;DHT22;8234;41.480;2.306;2023-03-01T09:26:19;8.20;99.90
16253;DHT22;8234;41.480;2.306;2023-03-01T09:36:25;8.60;99.90
16253;DHT22;8234;41.480;2.306;2023-03-01T09:46:30;9.40;99.90
16253;DHT22;8234;41.480;2.306;2023-03-01T09:56:41;10.10;99.90
16253;DHT22;8234;41.480;2.306;2023-03-01T10:06:50;10.20;99.90
16253;DHT22;8234;41.480;2.306;2023-03-01T10:16:58;10.40;99.90
16253;DHT22;8234;41.480;2.306;2023-03-01T10:27:09;10.30;99.90
16253;DHT22;8234;41.480;2.306;2023-03-01T10:37:17;10.60;99.90
16253;DHT22;8234;41.480;2.306;2023-03-01T10:47:24;10.80;99.90
16253;DHT22;8234;41.480;2.306;2023-03-01T10:57:35;11.00;99.90
16253;DHT22;8234;41.480;2.306;2023-03-01T11:07:47;12.10;99.90
16253;DHT22;8234;41.480;2.306;2023-03-01T11:17:53;12.50;99.90
16253;DHT22;8234;41.480;2.306;2023-03-01T11:28:15;13.10;99.90
16253;DHT22;8234;41.480;2.306;2023-03-01T11:38:23;14.10;99.90
16253;DHT22;8234;41.480;2.306;2023-03-01T11:48:44;14.70;99.90
16253;DHT22;8234;41.480;2.306;2023-03-01T11:59:13;13.90;99.90
16253;DHT22;8234;41.480;2.306;2023-03-01T12:09:47;15.30;99.90
16253;DHT22;8234;41.480;2.306;2023-03-01T12:20:09;15.10;99.90
16253;DHT22;8234;41.480;2.306;2023-03-01T12:30:26;14.60;99.90
16253;DHT22;8234;41.480;2.306;2023-03-01T12:41:04;14.70;99.90
16253;DHT22;8234;41.480;2.306;2023-03-01T12:51:13;14.20;99.90
16253;DHT22;8234;41.480;2.306;2023-03-01T13:01:25;14.90;99.90
16253;DHT22;8234;41.480;2.306;2023-03-01T13:11:31;14.70;99.90
16253;DHT22;8234;41.480;2.306;2023-03-01T13:21:38;15.80;99.90
16253;DHT22;8234;41.480;2.306;2023-03-01T13:31:59;17.10;99.90
16253;DHT22;8234;41.480;2.306;2023-03-01T13:42:36;17.20;99.90
16253;DHT22;8234;41.480;2.306;2023-03-01T13:52:43;17.30;99.90
16253;DHT22;8234;41.480;2.306;2023-03-01T14:03:00;16.30;99.90
16253;DHT22;8234;41.480;2.306;2023-03-01T14:13:23;16.40;99.90
16253;DHT22;8234;41.480;2.306;2023-03-01T14:23:32;16.30;99.90
16253;DHT22;8234;41.480;2.306;2023-03-01T14:33:37;16.90;99.90
16253;DHT22;8234;41.480;2.306;2023-03-01T14:43:46;16.60;99.90
16253;DHT22;8234;41.480;2.306;2023-03-01T14:53:51;17.00;99.90
16253;DHT22;8234;41.480;2.306;2023-03-01T15:03:57;17.00;99.90
16253;DHT22;8234;41.480;2.306;2023-03-01T15:14:01;16.80;99.90
16253;DHT22;8234;41.480;2.306;2023-03-01T15:24:08;16.90;99.90
16253;DHT22;8234;41.480;2.306;2023-03-01T15:34:23;17.50;99.90
16253;DHT22;8234;41.480;2.306;2023-03-01T15:44:30;16.70;99.90
16253;DHT22;8234;41.480;2.306;2023-03-01T15:54:44;16.80;99.90
16253;DHT22;8234;41.480;2.306;2023-03-01T16:04:49;15.70;99.90
16253;DHT22;8234;41.480;2.306;2023-03-01T16:14:53;14.50;99.90
16253;DHT22;8234;41.480;2.306;2023-03-01T16:25:01;14.50;99.90
16253;DHT22;8234;41.480;2.306;2023-03-01T16:35:06;13.30;99.90
16253;DHT22;8234;41.480;2.306;2023-03-01T16:45:11;12.40;99.90
16253;DHT22;8234;41.480;2.306;2023-03-01T16:55:25;11.90;99.90
16253;DHT22;8234;41.480;2.306;2023-03-01T17:05:31;11.80;99.90
16253;DHT22;8234;41.480;2.306;2023-03-01T17:15:35;11.00;99.90
16253;DHT22;8234;41.480;2.306;2023-03-01T17:25:43;10.60;99.90
16253;DHT22;8234;41.480;2.306;2023-03-01T17:35:47;10.20;99.90
16253;DHT22;8234;41.480;2.306;2023-03-01T17:45:52;10.00;99.90
16253;DHT22;8234;41.480;2.306;2023-03-01T17:56:00;10.00;99.90
16253;DHT22;8234;41.480;2.306;2023-03-01T18:06:11;9.80;99.90
16253;DHT22;8234;41.480;2.306;2023-03-01T18:16:16;9.60;99.90
16253;DHT22;8234;41.480;2.306;2023-03-01T18:26:22;8.80;99.90
16253;DHT22;8234;41.480;2.306;2023-03-01T18:36:28;8.00;99.90
16253;DHT22;8234;41.480;2.306;2023-03-01T18:46:34;7.70;99.90
16253;DHT22;8234;41.480;2.306;2023-03-01T18:56:40;7.30;99.90
16253;DHT22;8234;41.480;2.306;2023-03-01T19:06:45;7.20;99.90
16253;DHT22;8234;41.480;2.306;2023-03-01T19:16:49;7.00;99.90
16253;DHT22;8234;41.480;2.306;2023-03-01T19:26:55;6.80;99.90
16253;DHT22;8234;41.480;2.306;2023-03-01T19:36:58;6.50;99.90
16253;DHT22;8234;41.480;2.306;2023-03-01T19:47:07;6.60;99.90
16253;DHT22;8234;41.480;2.306;2023-03-01T19:57:11;6.50;99.90
16253;DHT22;8234;41.480;2.306;2023-03-01T20:07:17;6.60;99.90
16253;DHT22;8234;41.480;2.306;2023-03-01T20:17:21;6.90;99.90
16253;DHT22;8234;41.480;2.306;2023-03-01T20:27:26;7.60;99.90
16253;DHT22;8234;41.480;2.306;2023-03-01T20:37:30;7.40;99.90
16253;DHT22;8234;41.480;2.306;2023-03-01T20:47:35;7.10;99.90
16253;DHT22;8234;41.480;2.306;2023-03-01T20:57:41;6.80;99.90
16253;DHT22;8234;41.480;2.306;2023-03-01T21:07:46;6.70;99.90
16253;DHT22;8234;41.480;2.306;2023-03-01T21:17:50;6.60;99.90
16253;DHT22;8234;41.480;2.306;2023-03-01T21:27:55;6.60;99.90
16253;DHT22;8234;41.480;2.306;2023-03-01T21:37:59;6.70;99.90
16253;DHT22;8234;41.480;2.306;2023-03-01T21:48:04;6.70;99.90
16253;DHT22;8234;41.480;2.306;2023-03-01T21:58:08;6.80;99.90
16253;DHT22;8234;41.480;2.306;2023-03-01T22:08:13;6.70;99.90
16253;DHT22;8234;41.480;2.306;2023-03-01T22:18:17;6.70;99.90
16253;DHT22;8234;41.480;2.306;2023-03-01T22:28:22;6.60;99.90
16253;DHT22;8234;41.480;2.306;2023-03-01T22:38:26;6.50;99.90
16253;DHT22;8234;41.480;2.306;2023-03-01T22:48:31;6.50;99.90
16253;DHT22;8234;41.480;2.306;2023-03-01T22:58:35;6.30;99.90
16253;DHT22;8234;41.480;2.306;2023-03-01T23:08:41;6.30;99.90
16253;DHT22;8234;41.480;2.306;2023-03-01T23:18:45;6.30;99.90
16253;DHT22;8234;41.480;2.306;2023-03-01T23:28:50;6.00;99.90
16253;DHT22;8234;41.480;2.306;2023-03-01T23:38:55;5.80;99.90
16253;DHT22;8234;41.480;2.306;2023-03-01T23:49:02;5.70;99.90
16253;DHT22;8234;41.480;2.306;2023-03-01T23:59:07;5.80;99.90
